TimeHST,TemperatureF,Dew PointF,Humidity,Sea Level PressureIn,VisibilityMPH,Wind Direction,Wind SpeedMPH,Gust SpeedMPH,PrecipitationIn,Events,Conditions,WindDirDegrees,DateUTC
12:40 AM,50.0,48.2,94,30.29,0.8,West,4.6,-,N/A,,Heavy Drizzle,260,2013-09-01 10:40:00
12:56 AM,48.0,47.3,97,30.28,0.9,West,3.5,-,0.00,Fog-Rain,Light Rain Showers,260,2013-09-01 10:56:00
1:00 AM,48.2,42.8,82,30.28,7.0,WSW,3.5,-,N/A,Fog,Fog,250,2013-09-01 11:00:00
1:56 AM,48.2,39.4,72,30.26,12.0,North,3.5,-,N/A,,Clear,10,2013-09-01 11:56:00
2:56 AM,48.9,32.4,53,30.26,12.0,NE,4.6,-,N/A,,Clear,50,2013-09-01 12:56:00
3:56 AM,47.1,34.2,61,30.26,12.0,WNW,4.6,-,N/A,,Clear,300,2013-09-01 13:56:00
4:56 AM,44.6,30.4,57,30.28,12.0,ESE,4.6,-,N/A,,Clear,120,2013-09-01 14:56:00
5:56 AM,44.8,29.5,55,30.29,12.0,ESE,6.9,-,N/A,,Clear,120,2013-09-01 15:56:00
6:56 AM,49.6,38.8,66,30.31,12.0,ESE,4.6,-,N/A,,Clear,120,2013-09-01 16:56:00
7:56 AM,57.9,48.6,71,30.31,10.0,SSE,9.2,13.8,N/A,,Clear,150,2013-09-01 17:56:00
8:56 AM,63.5,42.4,46,30.32,12.0,SE,6.9,18.4,N/A,,Clear,140,2013-09-01 18:56:00
9:56 AM,68.2,35.2,30,30.32,12.0,SE,16.1,26.5,N/A,,Clear,140,2013-09-01 19:56:00
10:56 AM,71.2,23.2,16,30.31,11.0,SE,18.4,31.1,N/A,,Clear,130,2013-09-01 20:56:00
11:56 AM,72.1,39.6,31,30.29,12.0,SE,17.3,28.8,N/A,,Clear,140,2013-09-01 21:56:00
12:56 PM,76.3,28.0,17,30.29,12.0,NNW,8.1,16.1,N/A,,Clear,340,2013-09-01 22:56:00
1:21 PM,71.6,53.6,53,30.24,12.0,NNW,15.0,34.5,N/A,,Partly Cloudy,330,2013-09-01 23:21:00
1:22 PM,71.6,53.6,53,30.24,12.0,North,16.1,34.5,N/A,,Partly Cloudy,350,2013-09-01 23:22:00
1:23 PM,71.6,50.0,46,30.27,12.0,ESE,18.4,34.5,N/A,,Partly Cloudy,110,2013-09-01 23:23:00
1:56 PM,69.4,52.9,56,30.27,12.0,SW,9.2,18.4,N/A,,Partly Cloudy,230,2013-09-01 23:56:00
2:25 PM,73.4,41.0,31,30.26,12.0,SSW,11.5,18.4,N/A,,Clear,210,2013-09-02 00:25:00
2:29 PM,73.4,41.0,31,30.26,12.0,SW,15.0,23.0,N/A,,Clear,220,2013-09-02 00:29:00
2:30 PM,73.4,53.6,50,30.26,12.0,WSW,16.1,23.0,N/A,,Clear,240,2013-09-02 00:30:00
2:31 PM,71.6,53.6,53,30.26,12.0,West,12.7,23.0,N/A,,Clear,260,2013-09-02 00:31:00
2:56 PM,70.0,53.4,56,30.26,12.0,WSW,9.2,23.0,N/A,,Clear,250,2013-09-02 00:56:00
3:56 PM,67.5,54.1,62,30.25,12.0,West,15.0,21.9,N/A,,Clear,270,2013-09-02 01:56:00
4:56 PM,65.3,53.8,66,30.26,12.0,West,13.8,18.4,N/A,,Clear,260,2013-09-02 02:56:00
5:56 PM,62.2,54.0,74,30.27,12.0,West,10.4,-,N/A,,Clear,260,2013-09-02 03:56:00
6:56 PM,56.3,54.3,93,30.29,9.0,West,6.9,-,N/A,,Clear,270,2013-09-02 04:56:00
7:56 PM,54.3,51.1,89,30.31,12.0,ESE,2.3,-,N/A,,Clear,110,2013-09-02 05:56:00
8:56 PM,57.2,37.6,48,30.31,12.0,West,4.6,-,N/A,,Clear,260,2013-09-02 06:56:00
9:56 PM,51.8,45.3,79,30.33,12.0,SW,2.3,-,N/A,,Clear,230,2013-09-02 07:56:00
10:56 PM,49.5,46.0,88,30.32,12.0,WSW,3.5,-,N/A,,Clear,250,2013-09-02 08:56:00
11:56 PM,48.7,41.9,77,30.30,12.0,North,2.3,-,N/A,,Clear,350,2013-09-02 09:56:00